createdAt,value
2022-12-12T00:00:27.112Z,97.07
2022-12-12T00:02:53.979Z,97.02
2022-12-12T00:05:20.687Z,96.79
2022-12-12T00:07:47.446Z,96.81
2022-12-12T00:10:14.159Z,96.86
2022-12-12T00:12:40.949Z,96.74
2022-12-12T00:15:08.069Z,96.67
2022-12-12T00:17:34.773Z,96.45
2022-12-12T00:20:01.588Z,96.65
2022-12-12T00:22:28.217Z,96.82
2022-12-12T00:24:54.884Z,96.98
2022-12-12T00:27:21.563Z,96.99
2022-12-12T00:29:53.153Z,97.21
2022-12-12T00:32:19.935Z,97.16
2022-12-12T00:34:46.730Z,96.81
2022-12-12T00:37:13.405Z,96.65
2022-12-12T00:39:41.879Z,96.56
2022-12-12T00:42:08.594Z,96.71
2022-12-12T00:44:35.267Z,96.72
2022-12-12T00:47:02.868Z,96.72
2022-12-12T00:49:30.293Z,96.57
2022-12-12T00:51:56.959Z,96.58
2022-12-12T00:54:23.754Z,96.22
2022-12-12T00:56:50.311Z,95.82
2022-12-12T00:59:17.130Z,95.63
2022-12-12T01:01:44.559Z,95.58
2022-12-12T01:04:11.255Z,95.50
2022-12-12T01:06:37.956Z,95.37
2022-12-12T01:09:04.673Z,95.35
2022-12-12T01:11:31.395Z,95.18
2022-12-12T01:13:58.070Z,95.34
2022-12-12T01:16:24.979Z,95.31
2022-12-12T01:18:51.726Z,95.46
2022-12-12T01:21:19.034Z,95.68
2022-12-12T01:23:45.739Z,95.78
2022-12-12T01:26:14.475Z,95.82
2022-12-12T01:28:41.277Z,96.01
2022-12-12T01:31:07.929Z,96.05
2022-12-12T01:33:34.664Z,96.11
2022-12-12T01:36:01.323Z,96.07
2022-12-12T01:38:27.961Z,96.00
2022-12-12T01:40:54.643Z,96.12
2022-12-12T01:43:22.389Z,96.11
2022-12-12T01:46:02.603Z,96.08
2022-12-12T01:48:31.983Z,96.16
2022-12-12T01:50:59.718Z,96.13
2022-12-12T01:53:26.589Z,96.17
2022-12-12T01:55:53.169Z,96.29
2022-12-12T01:58:19.807Z,96.51
2022-12-12T02:00:46.565Z,96.50
2022-12-12T02:03:13.178Z,96.53
2022-12-12T02:05:42.221Z,96.45
2022-12-12T02:08:08.969Z,96.45
2022-12-12T02:10:35.672Z,96.51
2022-12-12T02:13:04.767Z,96.56
2022-12-12T02:15:40.523Z,96.55
2022-12-12T02:18:19.308Z,96.64
2022-12-12T02:21:07.666Z,96.72
2022-12-12T02:24:12.011Z,96.71
2022-12-12T02:27:09.798Z,96.67
2022-12-12T02:29:41.659Z,96.67
2022-12-12T02:32:21.522Z,96.76
2022-12-12T02:35:23.708Z,96.83
2022-12-12T02:38:05.499Z,96.28
2022-12-12T02:40:43.403Z,96.28
2022-12-12T02:43:30.209Z,96.54
2022-12-12T02:45:59.545Z,96.81
2022-12-12T02:48:37.530Z,96.84
2022-12-12T02:51:05.432Z,97.00
2022-12-12T02:53:32.103Z,97.08
2022-12-12T02:56:42.267Z,97.21
2022-12-12T02:59:09.365Z,97.24
2022-12-12T03:01:57.166Z,97.36
2022-12-12T03:05:01.215Z,97.45
2022-12-12T03:07:49.382Z,97.28
2022-12-12T03:10:32.446Z,97.01
2022-12-12T03:13:21.738Z,97.01
2022-12-12T03:15:54.494Z,96.91
2022-12-12T03:18:27.093Z,96.89
2022-12-12T03:21:17.392Z,97.00
2022-12-12T03:23:45.248Z,96.86
2022-12-12T03:26:15.016Z,96.86
2022-12-12T03:29:05.756Z,96.66
2022-12-12T03:31:32.822Z,96.75
2022-12-12T03:34:08.943Z,96.75
2022-12-12T03:36:45.733Z,96.67
2022-12-12T03:39:45.582Z,96.46
2022-12-12T03:42:20.337Z,96.39
2022-12-12T03:44:49.788Z,96.52
2022-12-12T03:47:21.571Z,96.45
2022-12-12T03:50:11.747Z,96.44
2022-12-12T03:52:44.358Z,96.36
2022-12-12T03:55:19.596Z,96.34
2022-12-12T03:57:52.343Z,96.53
2022-12-12T04:00:19.121Z,96.78
2022-12-12T04:03:02.345Z,96.77
2022-12-12T04:05:35.885Z,96.58
2022-12-12T04:08:05.228Z,96.42
2022-12-12T04:10:53.721Z,95.98
2022-12-12T04:13:33.565Z,95.64
2022-12-12T04:16:04.712Z,95.83
2022-12-12T04:18:49.610Z,95.85
2022-12-12T04:21:57.775Z,95.88
2022-12-12T04:24:40.656Z,95.92
2022-12-12T04:27:24.592Z,96.23
2022-12-12T04:30:05.120Z,96.38
2022-12-12T04:33:14.384Z,96.29
2022-12-12T04:35:45.608Z,96.09
2022-12-12T04:38:22.920Z,96.15
2022-12-12T04:40:51.728Z,96.63
2022-12-12T04:43:21.024Z,96.65
2022-12-12T04:45:51.028Z,96.95
2022-12-12T04:48:19.624Z,96.88
2022-12-12T04:50:48.809Z,96.64
2022-12-12T04:53:18.564Z,96.93
2022-12-12T04:55:50.924Z,96.74
2022-12-12T04:58:17.678Z,96.87
2022-12-12T05:00:59.677Z,96.73
2022-12-12T05:03:47.731Z,96.77
2022-12-12T05:06:15.086Z,97.00
2022-12-12T05:08:43.507Z,97.13
2022-12-12T05:11:10.353Z,97.33
2022-12-12T05:13:37.779Z,97.21
2022-12-12T05:16:10.710Z,97.40
2022-12-12T05:18:37.383Z,97.22
2022-12-12T05:21:04.196Z,97.22
2022-12-12T05:23:34.612Z,97.27
2022-12-12T05:26:07.458Z,97.57
2022-12-12T05:28:34.210Z,97.63
2022-12-12T05:31:00.941Z,97.40
2022-12-12T05:33:27.911Z,97.45
2022-12-12T05:35:54.613Z,97.47
2022-12-12T05:38:21.268Z,97.36
2022-12-12T05:40:48.499Z,97.55
2022-12-12T05:43:15.303Z,97.59
2022-12-12T05:45:42.332Z,97.60
2022-12-12T05:48:09.022Z,97.59
2022-12-12T05:50:35.754Z,97.60
2022-12-12T05:53:02.540Z,97.47
2022-12-12T05:55:29.228Z,97.63
2022-12-12T05:57:55.903Z,97.77
2022-12-12T06:00:22.723Z,97.76
2022-12-12T06:02:49.725Z,97.63
2022-12-12T06:05:16.620Z,97.04
2022-12-12T06:07:43.743Z,97.27
2022-12-12T06:10:10.506Z,97.51
2022-12-12T06:12:37.336Z,97.48
2022-12-12T06:15:04.450Z,97.50
2022-12-12T06:17:33.268Z,97.61
2022-12-12T06:20:00.613Z,97.69
2022-12-12T06:22:27.340Z,97.56
2022-12-12T06:24:54.045Z,97.48
2022-12-12T06:27:20.884Z,97.51
2022-12-12T06:29:48.242Z,97.57
2022-12-12T06:32:14.888Z,97.68
2022-12-12T06:34:41.633Z,97.43
2022-12-12T06:37:10.714Z,97.55
2022-12-12T06:39:42.483Z,97.52
2022-12-12T06:42:09.066Z,97.46
2022-12-12T06:44:35.704Z,97.28
2022-12-12T06:47:02.378Z,97.37
2022-12-12T06:49:29.077Z,97.61
2022-12-12T06:51:55.796Z,97.51
2022-12-12T06:54:22.512Z,97.23
2022-12-12T06:56:49.494Z,97.14
2022-12-12T06:59:16.570Z,97.14
2022-12-12T07:01:43.555Z,97.38
2022-12-12T07:04:14.021Z,97.57
2022-12-12T07:06:40.867Z,97.55
2022-12-12T07:09:08.183Z,97.48
2022-12-12T07:11:34.847Z,97.64
2022-12-12T07:14:03.825Z,97.77
2022-12-12T07:16:30.623Z,97.70
2022-12-12T07:18:57.297Z,97.86
2022-12-12T07:21:24.032Z,97.99
2022-12-12T07:23:50.741Z,97.98
2022-12-12T07:26:19.483Z,97.96
2022-12-12T07:28:46.329Z,97.86
2022-12-12T07:31:14.152Z,97.58
2022-12-12T07:33:44.390Z,97.35
2022-12-12T07:36:12.616Z,97.22
2022-12-12T07:38:39.806Z,97.17
2022-12-12T07:41:08.246Z,97.02
2022-12-12T07:43:39.972Z,96.60
2022-12-12T07:46:10.515Z,96.33
2022-12-12T07:48:37.236Z,95.68
2022-12-12T07:51:04.028Z,95.88
2022-12-12T07:53:30.777Z,95.95
2022-12-12T07:55:57.483Z,95.85
2022-12-12T07:58:24.402Z,95.71
2022-12-12T08:00:51.021Z,95.81
2022-12-12T08:03:17.681Z,95.46
2022-12-12T08:05:44.383Z,95.41
2022-12-12T08:08:11.545Z,95.24
2022-12-12T08:10:39.379Z,95.24
2022-12-12T08:13:06.710Z,95.48
2022-12-12T08:15:33.609Z,95.20
2022-12-12T08:18:00.260Z,95.28
2022-12-12T08:20:26.941Z,95.09
2022-12-12T08:22:53.715Z,95.10
2022-12-12T08:25:20.493Z,94.71
2022-12-12T08:27:47.327Z,94.76
2022-12-12T08:30:14.104Z,94.65
2022-12-12T08:32:40.803Z,94.45
2022-12-12T08:35:08.108Z,94.54
2022-12-12T08:37:34.870Z,94.75
2022-12-12T08:40:01.597Z,94.43
2022-12-12T08:42:28.386Z,94.38
2022-12-12T08:44:55.046Z,93.93
2022-12-12T08:47:21.877Z,93.91
2022-12-12T08:49:48.543Z,93.81
2022-12-12T08:52:15.367Z,93.91
2022-12-12T08:54:42.119Z,93.82
2022-12-12T08:57:08.818Z,93.32
2022-12-12T08:59:35.814Z,93.02
2022-12-12T09:02:02.719Z,92.58
2022-12-12T09:04:29.531Z,92.42
2022-12-12T09:06:56.317Z,92.53
2022-12-12T09:09:22.934Z,92.44
2022-12-12T09:11:49.691Z,92.23
2022-12-12T09:14:16.532Z,92.45
2022-12-12T09:16:43.457Z,92.37
2022-12-12T09:19:11.302Z,92.20
2022-12-12T09:21:37.993Z,92.12
2022-12-12T09:24:04.859Z,92.21
2022-12-12T09:26:32.219Z,92.09
2022-12-12T09:28:58.920Z,91.84
2022-12-12T09:31:25.667Z,91.48
2022-12-12T09:33:52.416Z,91.02
2022-12-12T09:36:19.108Z,91.32
2022-12-12T09:38:45.841Z,91.11
2022-12-12T09:41:34.497Z,91.21
2022-12-12T09:44:12.445Z,91.24
2022-12-12T09:47:01.085Z,91.25
2022-12-12T09:49:43.903Z,91.44
2022-12-12T09:52:27.774Z,91.17
2022-12-12T09:54:59.213Z,91.57
2022-12-12T09:57:31.196Z,91.41
2022-12-12T10:00:04.168Z,91.57
2022-12-12T10:02:41.017Z,91.67
2022-12-12T14:51:03.062Z,92.00
2022-12-12T14:53:39.262Z,91.54
2022-12-12T14:56:14.400Z,91.20
2022-12-12T14:59:06.919Z,90.94
2022-12-12T15:01:47.677Z,90.91
2022-12-12T15:04:18.807Z,90.34
2022-12-12T15:06:49.735Z,90.21
2022-12-12T15:09:23.038Z,89.99
2022-12-12T15:11:50.244Z,90.00
2022-12-12T15:14:22.312Z,89.48
2022-12-12T15:17:28.311Z,89.43
2022-12-12T15:19:56.228Z,89.60
2022-12-12T15:22:38.323Z,89.30
2022-12-12T15:25:16.453Z,89.03
2022-12-12T15:27:52.172Z,89.24
2022-12-12T15:30:38.031Z,88.90
2022-12-12T15:33:14.873Z,88.51
2022-12-12T15:35:48.699Z,88.10
2022-12-12T15:38:15.345Z,88.12
2022-12-12T15:40:43.397Z,87.79
2022-12-12T15:43:18.978Z,87.82
2022-12-12T15:45:51.401Z,87.48
2022-12-12T15:48:18.381Z,87.52
2022-12-12T15:50:45.840Z,87.63
2022-12-12T15:53:16.276Z,87.55
2022-12-12T15:56:00.697Z,87.53
2022-12-12T15:58:30.069Z,87.65
2022-12-12T16:01:08.407Z,87.64
2022-12-12T16:03:55.142Z,87.95
2022-12-12T16:06:23.964Z,87.91
2022-12-12T16:09:00.724Z,88.22
2022-12-12T16:11:43.452Z,88.27
2022-12-12T16:14:40.313Z,88.17
2022-12-12T16:17:20.277Z,88.10
2022-12-12T16:19:59.167Z,88.11
2022-12-12T16:22:44.143Z,88.17
2022-12-12T16:25:24.128Z,88.32
2022-12-12T16:27:57.373Z,88.13
2022-12-12T16:30:24.541Z,88.18
2022-12-12T16:32:51.302Z,88.11
2022-12-12T16:35:20.742Z,87.98
2022-12-12T16:37:47.469Z,87.79
2022-12-12T16:40:15.805Z,87.92
2022-12-12T16:42:44.200Z,87.91
2022-12-12T16:45:11.714Z,87.74
2022-12-12T16:47:38.565Z,87.80
2022-12-12T16:50:05.574Z,87.68
2022-12-12T16:52:32.259Z,87.70
2022-12-12T16:54:58.898Z,87.73
2022-12-12T16:57:25.564Z,87.65
2022-12-12T16:59:52.277Z,87.86
2022-12-12T17:02:22.971Z,88.03
2022-12-12T17:04:49.960Z,87.90
2022-12-12T17:07:16.726Z,87.67
2022-12-12T17:09:43.472Z,87.84
2022-12-12T17:12:11.799Z,87.62
2022-12-12T17:14:38.671Z,87.57
2022-12-12T17:17:05.298Z,87.61
2022-12-12T17:19:32.216Z,87.32
2022-12-12T17:21:58.817Z,87.72
2022-12-12T17:24:25.486Z,87.40
2022-12-12T17:26:52.188Z,87.52
2022-12-12T17:29:18.845Z,87.66
2022-12-12T17:31:45.776Z,87.69
2022-12-12T17:34:12.435Z,87.60
2022-12-12T17:36:39.117Z,87.66
2022-12-12T17:39:06.686Z,87.79
2022-12-12T17:41:33.352Z,87.76
2022-12-12T17:43:59.986Z,87.67
2022-12-12T17:46:28.607Z,87.71
2022-12-12T17:48:57.285Z,88.02
2022-12-12T17:51:24.345Z,87.88
2022-12-12T17:53:52.481Z,87.76
2022-12-12T17:56:21.652Z,88.08
2022-12-12T17:58:49.470Z,87.98
2022-12-12T18:01:17.921Z,88.02
2022-12-12T18:03:45.506Z,87.92
2022-12-12T18:06:12.484Z,88.00
2022-12-12T18:08:39.253Z,88.12
2022-12-12T18:11:06.690Z,88.20
2022-12-12T18:13:33.369Z,88.14
2022-12-12T18:16:00.045Z,88.21
2022-12-12T18:18:26.795Z,88.25
2022-12-12T18:20:53.638Z,88.24
2022-12-12T18:23:21.175Z,87.96
2022-12-12T18:25:47.911Z,88.11
2022-12-12T18:28:14.663Z,88.11
2022-12-12T18:30:41.400Z,88.18
2022-12-12T18:33:08.641Z,88.17
2022-12-12T18:35:36.272Z,87.94
2022-12-12T18:38:02.983Z,88.18
2022-12-12T18:40:29.773Z,88.01
2022-12-12T18:42:56.896Z,88.12
2022-12-12T18:45:24.137Z,88.07
2022-12-12T18:47:50.907Z,88.20
2022-12-12T18:50:17.612Z,88.13
2022-12-12T18:52:44.326Z,88.13
2022-12-12T18:55:10.981Z,88.51
2022-12-12T18:57:37.620Z,88.23
2022-12-12T19:00:07.128Z,88.51
2022-12-12T19:02:38.338Z,88.17
2022-12-12T20:06:13.659Z,89.56
2022-12-12T20:08:40.758Z,89.63
2022-12-12T20:11:09.910Z,89.65
2022-12-12T20:13:37.278Z,89.69
2022-12-12T20:16:17.744Z,89.68
2022-12-12T20:18:44.746Z,89.81
2022-12-12T20:21:24.715Z,89.84
2022-12-12T20:23:58.000Z,89.94
2022-12-12T20:26:26.537Z,89.82
2022-12-12T20:28:54.128Z,89.67
2022-12-12T20:31:23.179Z,89.65
2022-12-12T20:33:50.078Z,89.63
2022-12-12T20:36:17.773Z,89.74
2022-12-12T20:38:44.760Z,89.67
2022-12-12T20:41:22.729Z,89.74
2022-12-12T20:43:49.526Z,89.61
2022-12-12T20:46:17.397Z,89.46
2022-12-12T20:48:44.190Z,89.55
2022-12-12T20:51:45.670Z,89.43
2022-12-12T20:54:00.032Z,89.33
2022-12-12T20:56:27.308Z,89.56
2022-12-12T20:58:56.026Z,89.59
2022-12-12T21:01:27.524Z,89.72
2022-12-12T21:03:54.236Z,89.51
2022-12-12T21:06:27.064Z,89.59
2022-12-12T21:08:54.364Z,89.60
2022-12-12T21:11:22.613Z,89.73
2022-12-12T21:13:50.687Z,89.49
2022-12-12T21:16:25.492Z,89.52
2022-12-12T21:18:53.871Z,89.53
2022-12-12T21:21:21.169Z,89.62
2022-12-12T21:23:49.328Z,89.43
2022-12-12T21:26:20.634Z,89.78
2022-12-12T21:28:50.832Z,89.64
2022-12-12T21:31:19.485Z,89.19
2022-12-12T21:33:46.376Z,89.36
2022-12-12T21:36:14.583Z,89.32
2022-12-12T21:38:41.682Z,89.21
2022-12-12T21:41:10.283Z,89.14
2022-12-12T21:43:37.187Z,89.28
2022-12-12T21:46:04.818Z,89.21
2022-12-12T21:48:31.720Z,89.07
2022-12-12T21:51:03.193Z,89.00
2022-12-12T21:53:35.903Z,89.11
2022-12-12T21:56:06.401Z,89.25
2022-12-12T21:58:33.819Z,89.49
2022-12-12T22:01:11.875Z,89.44
2022-12-12T22:03:38.565Z,89.57
2022-12-12T22:06:15.553Z,89.41
2022-12-12T22:08:42.281Z,89.45
2022-12-12T22:11:09.628Z,89.56
2022-12-12T22:13:40.140Z,89.42
2022-12-12T22:16:10.514Z,89.48
2022-12-12T22:18:37.327Z,89.25
2022-12-12T22:21:04.873Z,89.49
2022-12-12T22:23:31.668Z,89.57
2022-12-12T22:25:58.229Z,89.45
2022-12-12T22:28:24.937Z,89.56
2022-12-12T22:30:51.570Z,89.46
2022-12-12T22:33:18.232Z,89.55
2022-12-12T22:35:44.865Z,89.61
2022-12-12T22:38:11.497Z,89.49
2022-12-12T22:40:38.160Z,89.19
2022-12-12T22:43:04.851Z,89.21
2022-12-12T22:45:31.758Z,89.16
2022-12-12T22:47:58.427Z,89.23
2022-12-12T22:50:25.101Z,89.10
2022-12-12T22:52:51.731Z,89.21
2022-12-12T22:55:18.544Z,89.37
2022-12-12T22:57:46.609Z,89.11
2022-12-12T23:00:13.923Z,89.15
2022-12-12T23:02:40.571Z,89.15
2022-12-12T23:05:08.965Z,89.19
2022-12-12T23:07:35.691Z,89.31
2022-12-12T23:10:02.794Z,89.08
2022-12-12T23:12:29.842Z,89.15
2022-12-12T23:14:56.516Z,89.49
2022-12-12T23:17:23.372Z,89.28
2022-12-12T23:19:50.032Z,89.34
2022-12-12T23:22:16.962Z,89.66
2022-12-12T23:24:43.528Z,89.44
2022-12-12T23:27:10.362Z,89.83
2022-12-12T23:29:36.907Z,89.78
2022-12-12T23:32:03.869Z,89.72
2022-12-12T23:34:30.651Z,90.13
2022-12-12T23:36:58.089Z,90.20
2022-12-12T23:39:25.361Z,90.31
2022-12-12T23:41:52.365Z,90.36
2022-12-12T23:44:19.708Z,90.33
2022-12-12T23:46:46.753Z,90.33
2022-12-12T23:49:17.415Z,90.62
2022-12-12T23:51:45.937Z,90.38
2022-12-12T23:54:15.560Z,90.57
2022-12-12T23:56:42.245Z,90.54
2022-12-12T23:59:12.794Z,90.64
